This is the latest recevied weather packets stored in our database for station/object LB9CG. If no packets are shown the sender has not sent any weather packets the latest 10 day(s).
| Time | Temp. | Humidity | Pressure | Rain* | Wind** | Luminosity | Snow |
|---|---|---|---|---|---|---|---|
| 1777689017 | 7.78° C | 84% | 1005.1 hPa | 0 mm | - | - | - |
| 1777684817 | 8.33° C | 88% | 1005.3 hPa | 0 mm | - | - | - |
| 1777684217 | 8.33° C | 88% | 1005.5 hPa | 0 mm | - | - | - |
| 1777681817 | 8.33° C | 89% | 1005.9 hPa | 0 mm | - | - | - |
| 1777678217 | 8.33° C | 90% | 1006.4 hPa | 0 mm | - | - | - |
| 1777674617 | 8.33° C | 89% | 1007.3 hPa | 0 mm | - | - | - |
| 1777671617 | 8.33° C | 86% | 1007.4 hPa | 0 mm | - | - | - |
| 1777668617 | 8.89° C | 82% | 1007.7 hPa | 0 mm | - | - | - |
| 1777668017 | 8.89° C | 82% | 1008 hPa | 0 mm | - | - | - |
| 1777665637 | 8.89° C | 80% | 1008.4 hPa | 0 mm | - | - | - |
| 1777662617 | 8.89° C | 79% | 1008.8 hPa | 0 mm | - | - | - |
| 1777662017 | 8.89° C | 80% | 1008.8 hPa | 0 mm | - | - | - |
| 1777654837 | 8.89° C | 77% | 1010.5 hPa | 0 mm | - | - | - |
| 1777648816 | 10.56° C | 70% | 1011.3 hPa | 0 mm | - | - | - |
| 1777647016 | 10.56° C | 69% | 1011.8 hPa | 0 mm | - | - | - |
| 1777646416 | 10.56° C | 69% | 1012.1 hPa | 0 mm | - | - | - |
| 1777639816 | 10.56° C | 68% | 1013.5 hPa | 0 mm | - | - | - |
| 1777633816 | 10.56° C | 73% | 1014.5 hPa | 0 mm | - | - | - |
| 1777627216 | 10.56° C | 75% | 1014.9 hPa | 0 mm | - | - | - |
| 1777620638 | 8.89° C | 82% | 1015.7 hPa | 0 mm | - | - | - |
| 1777618237 | 8.89° C | 83% | 1016.1 hPa | 0 mm | - | - | - |
| 1777615817 | 8.33° C | 86% | 1016.3 hPa | 0 mm | - | - | - |
| 1777610417 | 7.78° C | 87% | 1016.5 hPa | 0 mm | - | - | - |
| 1777606817 | 7.22° C | 87% | 1017.1 hPa | 0 mm | - | - | - |
| 1777606217 | 7.22° C | 87% | 1017.3 hPa | 0 mm | - | - | - |
* Rain latest hour (hover to see other rain measurements)
** Current wind speed in m/s (hover to see current wind gust speed)